Airport ID:KEDC
Update Time (UTC):23 SEP 17 12:32
Wind Speed (Knots):CALM
Wind Direction (Magnetic):
Temperature (°C):21
Dew Point (°C):21
Humidity (%):100
Altimeter (inHg):29.95
Density Altitude (Feet):
Visibility (Miles):<0.25
Clouds (Hundreds of feet):OVC002
Present Weather:FOG
METAR:METAR KEDC 231230Z AUTO 00000KT M1/4SM FG OVC002 21/21 A2995 RMK AO2

The data displayed is for advisory purposes only and is not to be used for flight planning or operations.

This page is not automatically refreshed. Reload the page to see current data.